sensor_id;sensor_type;location;lat;lon;timestamp;temperature;humidity
30999;DHT22;20549;50.042;8.968;2024-02-26T00:02:07;10.00;74.10
30999;DHT22;20549;50.042;8.968;2024-02-26T00:04:33;10.00;74.20
30999;DHT22;20549;50.042;8.968;2024-02-26T00:07:00;10.00;74.20
30999;DHT22;20549;50.042;8.968;2024-02-26T00:09:26;10.00;74.20
30999;DHT22;20549;50.042;8.968;2024-02-26T00:11:53;10.00;74.20
30999;DHT22;20549;50.042;8.968;2024-02-26T00:14:20;10.00;74.30
30999;DHT22;20549;50.042;8.968;2024-02-26T00:16:46;10.00;75.10
30999;DHT22;20549;50.042;8.968;2024-02-26T00:19:13;10.00;74.60
30999;DHT22;20549;50.042;8.968;2024-02-26T00:21:42;10.00;75.40
30999;DHT22;20549;50.042;8.968;2024-02-26T00:24:09;10.00;74.60
30999;DHT22;20549;50.042;8.968;2024-02-26T00:26:36;10.00;74.70
30999;DHT22;20549;50.042;8.968;2024-02-26T00:29:02;10.00;74.60
30999;DHT22;20549;50.042;8.968;2024-02-26T00:31:29;10.00;74.60
30999;DHT22;20549;50.042;8.968;2024-02-26T00:33:55;10.10;74.60
30999;DHT22;20549;50.042;8.968;2024-02-26T00:36:22;10.10;74.70
30999;DHT22;20549;50.042;8.968;2024-02-26T00:38:49;10.00;74.70
30999;DHT22;20549;50.042;8.968;2024-02-26T00:41:15;10.10;74.70
30999;DHT22;20549;50.042;8.968;2024-02-26T00:43:42;10.10;74.80
30999;DHT22;20549;50.042;8.968;2024-02-26T00:46:08;10.10;74.70
30999;DHT22;20549;50.042;8.968;2024-02-26T00:48:35;10.10;74.70
30999;DHT22;20549;50.042;8.968;2024-02-26T00:51:02;10.00;74.60
30999;DHT22;20549;50.042;8.968;2024-02-26T00:53:28;10.10;74.70
30999;DHT22;20549;50.042;8.968;2024-02-26T00:55:55;10.10;74.80
30999;DHT22;20549;50.042;8.968;2024-02-26T00:58:21;10.10;74.80
30999;DHT22;20549;50.042;8.968;2024-02-26T01:00:48;10.10;74.80
30999;DHT22;20549;50.042;8.968;2024-02-26T01:03:14;10.10;74.80
30999;DHT22;20549;50.042;8.968;2024-02-26T01:05:41;10.10;74.90
30999;DHT22;20549;50.042;8.968;2024-02-26T01:08:08;10.10;74.90
30999;DHT22;20549;50.042;8.968;2024-02-26T01:10:34;10.10;74.90
30999;DHT22;20549;50.042;8.968;2024-02-26T01:13:01;10.10;75.00
30999;DHT22;20549;50.042;8.968;2024-02-26T01:15:27;10.20;75.10
30999;DHT22;20549;50.042;8.968;2024-02-26T01:17:54;10.20;75.10
30999;DHT22;20549;50.042;8.968;2024-02-26T01:20:21;10.20;75.10
30999;DHT22;20549;50.042;8.968;2024-02-26T01:22:50;10.20;75.10
30999;DHT22;20549;50.042;8.968;2024-02-26T01:25:16;10.20;75.00
30999;DHT22;20549;50.042;8.968;2024-02-26T01:27:43;10.30;75.00
30999;DHT22;20549;50.042;8.968;2024-02-26T01:30:09;10.30;75.00
30999;DHT22;20549;50.042;8.968;2024-02-26T01:32:36;10.30;74.90
30999;DHT22;20549;50.042;8.968;2024-02-26T01:35:03;10.30;74.90
30999;DHT22;20549;50.042;8.968;2024-02-26T01:37:32;10.40;74.80
30999;DHT22;20549;50.042;8.968;2024-02-26T01:39:58;10.40;74.80
30999;DHT22;20549;50.042;8.968;2024-02-26T01:42:25;10.40;74.80
30999;DHT22;20549;50.042;8.968;2024-02-26T01:44:52;10.40;74.70
30999;DHT22;20549;50.042;8.968;2024-02-26T01:47:18;10.40;74.80
30999;DHT22;20549;50.042;8.968;2024-02-26T01:49:45;10.40;74.60
30999;DHT22;20549;50.042;8.968;2024-02-26T01:52:11;10.40;74.60
30999;DHT22;20549;50.042;8.968;2024-02-26T01:54:38;10.40;74.60
30999;DHT22;20549;50.042;8.968;2024-02-26T01:57:05;10.40;74.60
30999;DHT22;20549;50.042;8.968;2024-02-26T01:59:31;10.40;74.60
30999;DHT22;20549;50.042;8.968;2024-02-26T02:01:58;10.40;74.60
30999;DHT22;20549;50.042;8.968;2024-02-26T02:04:24;10.50;74.90
30999;DHT22;20549;50.042;8.968;2024-02-26T02:06:51;10.40;74.50
30999;DHT22;20549;50.042;8.968;2024-02-26T02:09:18;10.40;74.60
30999;DHT22;20549;50.042;8.968;2024-02-26T02:11:44;10.40;74.40
30999;DHT22;20549;50.042;8.968;2024-02-26T02:14:11;10.40;74.40
30999;DHT22;20549;50.042;8.968;2024-02-26T02:16:37;10.50;74.40
30999;DHT22;20549;50.042;8.968;2024-02-26T02:19:04;10.50;74.30
30999;DHT22;20549;50.042;8.968;2024-02-26T02:21:30;10.50;74.30
30999;DHT22;20549;50.042;8.968;2024-02-26T02:23:57;10.50;74.30
30999;DHT22;20549;50.042;8.968;2024-02-26T02:26:24;10.50;74.30
30999;DHT22;20549;50.042;8.968;2024-02-26T02:28:50;10.50;74.20
30999;DHT22;20549;50.042;8.968;2024-02-26T02:31:17;10.50;75.00
30999;DHT22;20549;50.042;8.968;2024-02-26T02:33:43;10.50;74.20
30999;DHT22;20549;50.042;8.968;2024-02-26T02:36:10;10.50;73.40
30999;DHT22;20549;50.042;8.968;2024-02-26T02:38:37;10.50;74.20
30999;DHT22;20549;50.042;8.968;2024-02-26T02:41:03;10.50;74.20
30999;DHT22;20549;50.042;8.968;2024-02-26T02:43:30;10.50;74.20
30999;DHT22;20549;50.042;8.968;2024-02-26T02:45:56;10.50;74.90
30999;DHT22;20549;50.042;8.968;2024-02-26T02:48:23;10.40;74.00
30999;DHT22;20549;50.042;8.968;2024-02-26T02:50:49;10.40;74.00
30999;DHT22;20549;50.042;8.968;2024-02-26T02:53:16;10.40;74.00
30999;DHT22;20549;50.042;8.968;2024-02-26T02:55:43;10.40;74.00
30999;DHT22;20549;50.042;8.968;2024-02-26T02:58:09;10.40;74.10
30999;DHT22;20549;50.042;8.968;2024-02-26T03:00:36;10.40;74.20
30999;DHT22;20549;50.042;8.968;2024-02-26T03:03:02;10.40;73.50
30999;DHT22;20549;50.042;8.968;2024-02-26T03:05:29;10.40;74.30
30999;DHT22;20549;50.042;8.968;2024-02-26T03:07:56;10.30;74.30
30999;DHT22;20549;50.042;8.968;2024-02-26T03:10:22;10.30;74.30
30999;DHT22;20549;50.042;8.968;2024-02-26T03:12:49;10.30;74.30
30999;DHT22;20549;50.042;8.968;2024-02-26T03:15:15;10.30;74.50
30999;DHT22;20549;50.042;8.968;2024-02-26T03:17:42;10.30;74.50
30999;DHT22;20549;50.042;8.968;2024-02-26T03:20:09;10.20;74.60
30999;DHT22;20549;50.042;8.968;2024-02-26T03:22:35;10.20;74.60
30999;DHT22;20549;50.042;8.968;2024-02-26T03:25:02;10.20;74.70
30999;DHT22;20549;50.042;8.968;2024-02-26T03:27:28;10.20;74.80
30999;DHT22;20549;50.042;8.968;2024-02-26T03:29:55;10.20;74.80
30999;DHT22;20549;50.042;8.968;2024-02-26T03:32:22;10.10;74.80
30999;DHT22;20549;50.042;8.968;2024-02-26T03:34:48;10.10;75.00
30999;DHT22;20549;50.042;8.968;2024-02-26T03:37:15;10.10;75.10
30999;DHT22;20549;50.042;8.968;2024-02-26T03:39:41;10.10;75.20
30999;DHT22;20549;50.042;8.968;2024-02-26T03:42:08;10.10;75.30
30999;DHT22;20549;50.042;8.968;2024-02-26T03:44:35;10.00;75.50
30999;DHT22;20549;50.042;8.968;2024-02-26T03:47:01;10.00;75.40
30999;DHT22;20549;50.042;8.968;2024-02-26T03:49:28;10.00;75.60
30999;DHT22;20549;50.042;8.968;2024-02-26T03:51:54;10.00;75.60
30999;DHT22;20549;50.042;8.968;2024-02-26T03:54:21;10.00;75.70
30999;DHT22;20549;50.042;8.968;2024-02-26T03:56:47;9.90;75.80
30999;DHT22;20549;50.042;8.968;2024-02-26T03:59:14;9.90;75.90
30999;DHT22;20549;50.042;8.968;2024-02-26T04:01:50;9.90;75.90
30999;DHT22;20549;50.042;8.968;2024-02-26T04:04:07;9.90;76.00
30999;DHT22;20549;50.042;8.968;2024-02-26T04:06:34;9.90;76.20
30999;DHT22;20549;50.042;8.968;2024-02-26T04:09:00;9.90;76.20
30999;DHT22;20549;50.042;8.968;2024-02-26T04:11:27;9.90;76.30
30999;DHT22;20549;50.042;8.968;2024-02-26T04:13:54;9.90;76.40
30999;DHT22;20549;50.042;8.968;2024-02-26T04:16:20;9.90;76.40
30999;DHT22;20549;50.042;8.968;2024-02-26T04:18:47;9.90;76.50
30999;DHT22;20549;50.042;8.968;2024-02-26T04:21:13;9.80;76.50
30999;DHT22;20549;50.042;8.968;2024-02-26T04:23:40;9.80;76.60
30999;DHT22;20549;50.042;8.968;2024-02-26T04:26:06;9.80;76.70
30999;DHT22;20549;50.042;8.968;2024-02-26T04:28:33;9.80;76.70
30999;DHT22;20549;50.042;8.968;2024-02-26T04:31:00;9.80;76.80
30999;DHT22;20549;50.042;8.968;2024-02-26T04:33:26;9.80;76.90
30999;DHT22;20549;50.042;8.968;2024-02-26T04:35:53;9.80;77.00
30999;DHT22;20549;50.042;8.968;2024-02-26T04:38:19;9.80;77.00
30999;DHT22;20549;50.042;8.968;2024-02-26T04:40:46;9.80;77.00
30999;DHT22;20549;50.042;8.968;2024-02-26T04:43:13;9.80;77.10
30999;DHT22;20549;50.042;8.968;2024-02-26T04:45:39;9.80;77.30
30999;DHT22;20549;50.042;8.968;2024-02-26T04:48:06;9.80;77.30
30999;DHT22;20549;50.042;8.968;2024-02-26T04:50:32;9.80;77.40
30999;DHT22;20549;50.042;8.968;2024-02-26T04:52:59;9.80;77.50
30999;DHT22;20549;50.042;8.968;2024-02-26T04:55:26;9.80;77.50
30999;DHT22;20549;50.042;8.968;2024-02-26T04:57:52;9.70;77.60
30999;DHT22;20549;50.042;8.968;2024-02-26T05:00:19;9.70;77.60
30999;DHT22;20549;50.042;8.968;2024-02-26T05:02:45;9.70;77.70
30999;DHT22;20549;50.042;8.968;2024-02-26T05:05:12;9.70;77.80
30999;DHT22;20549;50.042;8.968;2024-02-26T05:07:41;9.70;77.80
30999;DHT22;20549;50.042;8.968;2024-02-26T05:10:08;9.70;77.90
30999;DHT22;20549;50.042;8.968;2024-02-26T05:12:35;9.70;77.90
30999;DHT22;20549;50.042;8.968;2024-02-26T05:15:01;9.70;77.90
30999;DHT22;20549;50.042;8.968;2024-02-26T05:17:28;9.70;78.00
30999;DHT22;20549;50.042;8.968;2024-02-26T05:19:54;9.70;78.00
30999;DHT22;20549;50.042;8.968;2024-02-26T05:22:21;9.70;77.90
30999;DHT22;20549;50.042;8.968;2024-02-26T05:24:48;9.80;77.90
30999;DHT22;20549;50.042;8.968;2024-02-26T05:27:14;9.80;77.70
30999;DHT22;20549;50.042;8.968;2024-02-26T05:29:41;9.80;77.70
30999;DHT22;20549;50.042;8.968;2024-02-26T05:32:07;9.80;77.70
30999;DHT22;20549;50.042;8.968;2024-02-26T05:34:34;9.70;77.60
30999;DHT22;20549;50.042;8.968;2024-02-26T05:37:00;9.80;77.50
30999;DHT22;20549;50.042;8.968;2024-02-26T05:39:27;9.80;77.50
30999;DHT22;20549;50.042;8.968;2024-02-26T05:41:54;9.80;77.50
30999;DHT22;20549;50.042;8.968;2024-02-26T05:44:22;9.80;77.50
30999;DHT22;20549;50.042;8.968;2024-02-26T05:46:47;9.80;77.30
30999;DHT22;20549;50.042;8.968;2024-02-26T05:49:13;9.70;77.10
30999;DHT22;20549;50.042;8.968;2024-02-26T05:51:40;9.70;77.10
30999;DHT22;20549;50.042;8.968;2024-02-26T05:54:07;9.70;77.30
30999;DHT22;20549;50.042;8.968;2024-02-26T05:56:33;9.70;77.30
30999;DHT22;20549;50.042;8.968;2024-02-26T05:59:00;9.70;77.20
30999;DHT22;20549;50.042;8.968;2024-02-26T06:01:26;9.70;77.10
30999;DHT22;20549;50.042;8.968;2024-02-26T06:03:53;9.70;77.10
30999;DHT22;20549;50.042;8.968;2024-02-26T06:06:19;9.70;77.20
30999;DHT22;20549;50.042;8.968;2024-02-26T06:08:46;9.70;77.10
30999;DHT22;20549;50.042;8.968;2024-02-26T06:11:13;9.70;77.10
30999;DHT22;20549;50.042;8.968;2024-02-26T06:13:39;9.70;77.20
30999;DHT22;20549;50.042;8.968;2024-02-26T06:16:07;9.70;77.20
30999;DHT22;20549;50.042;8.968;2024-02-26T06:18:32;9.70;77.30
30999;DHT22;20549;50.042;8.968;2024-02-26T06:20:59;9.70;77.40
30999;DHT22;20549;50.042;8.968;2024-02-26T06:23:26;9.70;77.50
30999;DHT22;20549;50.042;8.968;2024-02-26T06:25:52;9.60;77.50
30999;DHT22;20549;50.042;8.968;2024-02-26T06:28:19;9.60;77.60
30999;DHT22;20549;50.042;8.968;2024-02-26T06:30:45;9.60;77.80
30999;DHT22;20549;50.042;8.968;2024-02-26T06:33:12;9.60;78.10
30999;DHT22;20549;50.042;8.968;2024-02-26T06:35:38;9.50;78.40
30999;DHT22;20549;50.042;8.968;2024-02-26T06:38:05;9.50;78.70
30999;DHT22;20549;50.042;8.968;2024-02-26T06:40:32;9.50;79.00
30999;DHT22;20549;50.042;8.968;2024-02-26T06:42:58;9.40;79.00
30999;DHT22;20549;50.042;8.968;2024-02-26T06:45:25;9.40;79.30
30999;DHT22;20549;50.042;8.968;2024-02-26T06:47:51;9.40;79.70
30999;DHT22;20549;50.042;8.968;2024-02-26T06:50:18;9.30;79.80
30999;DHT22;20549;50.042;8.968;2024-02-26T06:52:45;9.30;80.30
30999;DHT22;20549;50.042;8.968;2024-02-26T06:55:11;9.30;80.40
30999;DHT22;20549;50.042;8.968;2024-02-26T06:57:38;9.30;80.40
30999;DHT22;20549;50.042;8.968;2024-02-26T07:00:04;9.30;80.60
30999;DHT22;20549;50.042;8.968;2024-02-26T07:02:31;9.20;80.80
30999;DHT22;20549;50.042;8.968;2024-02-26T07:04:58;9.20;81.50
30999;DHT22;20549;50.042;8.968;2024-02-26T07:07:24;9.20;82.30
30999;DHT22;20549;50.042;8.968;2024-02-26T07:09:51;9.20;82.30
30999;DHT22;20549;50.042;8.968;2024-02-26T07:12:17;9.20;82.80
30999;DHT22;20549;50.042;8.968;2024-02-26T07:14:44;9.20;83.30
30999;DHT22;20549;50.042;8.968;2024-02-26T07:17:10;9.30;83.70
30999;DHT22;20549;50.042;8.968;2024-02-26T07:19:37;9.30;84.20
30999;DHT22;20549;50.042;8.968;2024-02-26T07:22:04;9.30;84.60
30999;DHT22;20549;50.042;8.968;2024-02-26T07:24:30;9.30;85.10
30999;DHT22;20549;50.042;8.968;2024-02-26T07:26:57;9.40;85.20
30999;DHT22;20549;50.042;8.968;2024-02-26T07:29:23;9.40;85.40
30999;DHT22;20549;50.042;8.968;2024-02-26T07:31:50;9.40;86.00
30999;DHT22;20549;50.042;8.968;2024-02-26T07:34:17;9.50;86.50
30999;DHT22;20549;50.042;8.968;2024-02-26T07:36:43;9.50;86.90
30999;DHT22;20549;50.042;8.968;2024-02-26T07:39:10;9.50;87.20
30999;DHT22;20549;50.042;8.968;2024-02-26T07:41:36;9.60;87.10
30999;DHT22;20549;50.042;8.968;2024-02-26T07:44:03;9.60;87.10
30999;DHT22;20549;50.042;8.968;2024-02-26T07:46:29;9.60;87.30
30999;DHT22;20549;50.042;8.968;2024-02-26T07:48:56;9.70;87.60
30999;DHT22;20549;50.042;8.968;2024-02-26T07:51:23;9.70;88.00
30999;DHT22;20549;50.042;8.968;2024-02-26T07:53:49;9.70;88.40
30999;DHT22;20549;50.042;8.968;2024-02-26T07:56:16;9.70;88.70
30999;DHT22;20549;50.042;8.968;2024-02-26T07:58:42;9.70;89.20
30999;DHT22;20549;50.042;8.968;2024-02-26T08:01:09;9.70;89.60
30999;DHT22;20549;50.042;8.968;2024-02-26T08:03:36;9.80;90.00
30999;DHT22;20549;50.042;8.968;2024-02-26T08:06:02;9.80;90.60
30999;DHT22;20549;50.042;8.968;2024-02-26T08:08:29;9.90;90.50
30999;DHT22;20549;50.042;8.968;2024-02-26T08:10:58;9.90;90.60
30999;DHT22;20549;50.042;8.968;2024-02-26T08:13:25;9.90;90.60
30999;DHT22;20549;50.042;8.968;2024-02-26T08:15:51;10.00;90.50
30999;DHT22;20549;50.042;8.968;2024-02-26T08:18:18;10.00;90.30
30999;DHT22;20549;50.042;8.968;2024-02-26T08:20:44;10.00;90.40
30999;DHT22;20549;50.042;8.968;2024-02-26T08:23:11;10.10;90.50
30999;DHT22;20549;50.042;8.968;2024-02-26T08:25:37;10.10;90.50
30999;DHT22;20549;50.042;8.968;2024-02-26T08:28:04;10.10;90.50
30999;DHT22;20549;50.042;8.968;2024-02-26T08:30:31;10.10;90.70
30999;DHT22;20549;50.042;8.968;2024-02-26T08:32:57;10.10;90.90
30999;DHT22;20549;50.042;8.968;2024-02-26T08:35:24;10.10;91.10
30999;DHT22;20549;50.042;8.968;2024-02-26T08:37:50;10.10;91.30
30999;DHT22;20549;50.042;8.968;2024-02-26T08:40:17;10.10;91.20
30999;DHT22;20549;50.042;8.968;2024-02-26T08:42:44;10.20;91.30
30999;DHT22;20549;50.042;8.968;2024-02-26T08:45:10;10.20;91.60
30999;DHT22;20549;50.042;8.968;2024-02-26T08:47:37;10.20;91.80
30999;DHT22;20549;50.042;8.968;2024-02-26T08:50:04;10.20;91.90
30999;DHT22;20549;50.042;8.968;2024-02-26T08:52:32;10.30;92.20
30999;DHT22;20549;50.042;8.968;2024-02-26T08:54:58;10.30;92.10
30999;DHT22;20549;50.042;8.968;2024-02-26T08:57:25;10.40;92.30
30999;DHT22;20549;50.042;8.968;2024-02-26T08:59:51;10.40;92.50
30999;DHT22;20549;50.042;8.968;2024-02-26T09:02:18;10.40;92.80
30999;DHT22;20549;50.042;8.968;2024-02-26T09:04:44;10.50;93.10
30999;DHT22;20549;50.042;8.968;2024-02-26T09:07:11;10.50;93.10
30999;DHT22;20549;50.042;8.968;2024-02-26T09:09:38;10.60;93.00
30999;DHT22;20549;50.042;8.968;2024-02-26T09:12:04;10.70;93.30
30999;DHT22;20549;50.042;8.968;2024-02-26T09:14:31;10.80;93.60
30999;DHT22;20549;50.042;8.968;2024-02-26T09:16:57;10.80;93.60
30999;DHT22;20549;50.042;8.968;2024-02-26T09:19:24;10.90;94.20
30999;DHT22;20549;50.042;8.968;2024-02-26T09:21:50;11.00;94.50
30999;DHT22;20549;50.042;8.968;2024-02-26T09:24:17;11.10;94.40
30999;DHT22;20549;50.042;8.968;2024-02-26T09:26:44;11.10;94.00
30999;DHT22;20549;50.042;8.968;2024-02-26T09:29:10;11.10;94.00
30999;DHT22;20549;50.042;8.968;2024-02-26T09:31:37;11.20;94.20
30999;DHT22;20549;50.042;8.968;2024-02-26T09:34:03;11.30;94.30
30999;DHT22;20549;50.042;8.968;2024-02-26T09:36:30;11.40;94.40
30999;DHT22;20549;50.042;8.968;2024-02-26T09:38:57;11.40;94.30
30999;DHT22;20549;50.042;8.968;2024-02-26T09:41:23;11.50;94.20
30999;DHT22;20549;50.042;8.968;2024-02-26T09:43:50;11.50;94.30
30999;DHT22;20549;50.042;8.968;2024-02-26T09:46:16;11.50;94.60
30999;DHT22;20549;50.042;8.968;2024-02-26T09:48:43;11.60;94.80
30999;DHT22;20549;50.042;8.968;2024-02-26T09:51:10;11.60;94.90
30999;DHT22;20549;50.042;8.968;2024-02-26T09:53:36;11.70;95.30
30999;DHT22;20549;50.042;8.968;2024-02-26T09:56:03;11.80;95.30
30999;DHT22;20549;50.042;8.968;2024-02-26T09:58:29;11.90;94.90
30999;DHT22;20549;50.042;8.968;2024-02-26T10:00:56;11.90;94.80
30999;DHT22;20549;50.042;8.968;2024-02-26T10:03:22;12.00;95.00
30999;DHT22;20549;50.042;8.968;2024-02-26T10:05:49;12.00;94.90
30999;DHT22;20549;50.042;8.968;2024-02-26T10:08:16;12.10;94.60
30999;DHT22;20549;50.042;8.968;2024-02-26T10:10:42;12.10;94.60
30999;DHT22;20549;50.042;8.968;2024-02-26T10:13:09;12.10;94.50
30999;DHT22;20549;50.042;8.968;2024-02-26T10:15:36;12.20;94.40
30999;DHT22;20549;50.042;8.968;2024-02-26T10:18:05;12.20;94.40
30999;DHT22;20549;50.042;8.968;2024-02-26T10:20:31;12.20;94.80
30999;DHT22;20549;50.042;8.968;2024-02-26T10:22:58;12.30;95.10
30999;DHT22;20549;50.042;8.968;2024-02-26T10:25:25;12.30;95.00
30999;DHT22;20549;50.042;8.968;2024-02-26T10:27:51;12.40;95.40
30999;DHT22;20549;50.042;8.968;2024-02-26T10:30:19;12.50;96.20
30999;DHT22;20549;50.042;8.968;2024-02-26T10:32:45;12.70;96.50
30999;DHT22;20549;50.042;8.968;2024-02-26T10:35:11;12.80;96.50
30999;DHT22;20549;50.042;8.968;2024-02-26T10:37:38;13.10;96.50
30999;DHT22;20549;50.042;8.968;2024-02-26T10:40:04;13.20;95.70
30999;DHT22;20549;50.042;8.968;2024-02-26T10:42:31;13.40;95.10
30999;DHT22;20549;50.042;8.968;2024-02-26T10:44:58;13.60;94.90
30999;DHT22;20549;50.042;8.968;2024-02-26T10:47:24;13.80;93.60
30999;DHT22;20549;50.042;8.968;2024-02-26T10:49:51;13.90;93.70
30999;DHT22;20549;50.042;8.968;2024-02-26T10:52:18;14.00;93.10
30999;DHT22;20549;50.042;8.968;2024-02-26T10:54:44;14.10;92.90
30999;DHT22;20549;50.042;8.968;2024-02-26T10:57:10;14.20;92.40
30999;DHT22;20549;50.042;8.968;2024-02-26T11:02:13;14.30;92.00
30999;DHT22;20549;50.042;8.968;2024-02-26T11:04:40;14.40;90.40
30999;DHT22;20549;50.042;8.968;2024-02-26T11:07:07;14.40;90.20
30999;DHT22;20549;50.042;8.968;2024-02-26T11:09:33;14.40;90.40
30999;DHT22;20549;50.042;8.968;2024-02-26T11:11:59;14.40;90.20
30999;DHT22;20549;50.042;8.968;2024-02-26T11:14:26;14.40;89.60
30999;DHT22;20549;50.042;8.968;2024-02-26T11:16:53;14.40;89.20
30999;DHT22;20549;50.042;8.968;2024-02-26T11:19:19;14.40;89.10
30999;DHT22;20549;50.042;8.968;2024-02-26T11:21:46;14.40;88.90
30999;DHT22;20549;50.042;8.968;2024-02-26T11:24:13;14.40;89.10
30999;DHT22;20549;50.042;8.968;2024-02-26T11:26:41;14.40;89.70
30999;DHT22;20549;50.042;8.968;2024-02-26T11:29:07;14.50;89.90
30999;DHT22;20549;50.042;8.968;2024-02-26T11:31:32;14.50;89.40
30999;DHT22;20549;50.042;8.968;2024-02-26T11:33:59;14.60;88.30
30999;DHT22;20549;50.042;8.968;2024-02-26T11:36:25;14.60;87.50
30999;DHT22;20549;50.042;8.968;2024-02-26T11:38:52;14.70;86.60
30999;DHT22;20549;50.042;8.968;2024-02-26T11:41:18;14.70;85.50
30999;DHT22;20549;50.042;8.968;2024-02-26T11:46:30;14.70;84.20
30999;DHT22;20549;50.042;8.968;2024-02-26T11:49:02;14.70;84.30
30999;DHT22;20549;50.042;8.968;2024-02-26T11:51:28;14.70;84.30
30999;DHT22;20549;50.042;8.968;2024-02-26T11:53:54;14.70;84.40
30999;DHT22;20549;50.042;8.968;2024-02-26T11:56:21;14.70;84.30
30999;DHT22;20549;50.042;8.968;2024-02-26T11:58:47;14.80;84.10
30999;DHT22;20549;50.042;8.968;2024-02-26T12:04:06;14.90;85.10
30999;DHT22;20549;50.042;8.968;2024-02-26T12:06:40;15.00;84.90
30999;DHT22;20549;50.042;8.968;2024-02-26T12:08:58;15.10;83.90
30999;DHT22;20549;50.042;8.968;2024-02-26T12:11:27;15.20;83.10
30999;DHT22;20549;50.042;8.968;2024-02-26T12:13:51;15.30;82.20
30999;DHT22;20549;50.042;8.968;2024-02-26T12:16:36;15.30;82.10
30999;DHT22;20549;50.042;8.968;2024-02-26T12:19:06;15.40;82.00
30999;DHT22;20549;50.042;8.968;2024-02-26T12:21:38;15.50;81.70
30999;DHT22;20549;50.042;8.968;2024-02-26T12:24:14;15.50;81.80
30999;DHT22;20549;50.042;8.968;2024-02-26T12:26:40;15.60;80.60
30999;DHT22;20549;50.042;8.968;2024-02-26T12:29:06;15.70;80.90
30999;DHT22;20549;50.042;8.968;2024-02-26T12:31:33;15.70;81.00
30999;DHT22;20549;50.042;8.968;2024-02-26T12:34:00;15.80;80.40
30999;DHT22;20549;50.042;8.968;2024-02-26T12:36:26;15.90;79.80
30999;DHT22;20549;50.042;8.968;2024-02-26T12:38:52;16.00;78.70
30999;DHT22;20549;50.042;8.968;2024-02-26T12:41:19;16.00;77.80
30999;DHT22;20549;50.042;8.968;2024-02-26T12:43:46;15.90;77.00
30999;DHT22;20549;50.042;8.968;2024-02-26T12:46:12;15.90;76.60
30999;DHT22;20549;50.042;8.968;2024-02-26T12:48:39;15.80;76.50
30999;DHT22;20549;50.042;8.968;2024-02-26T12:51:05;15.80;76.30
30999;DHT22;20549;50.042;8.968;2024-02-26T12:53:32;15.70;76.20
30999;DHT22;20549;50.042;8.968;2024-02-26T12:55:59;15.70;76.20
30999;DHT22;20549;50.042;8.968;2024-02-26T12:58:25;15.60;76.10
30999;DHT22;20549;50.042;8.968;2024-02-26T13:00:52;15.60;76.40
30999;DHT22;20549;50.042;8.968;2024-02-26T13:03:18;15.60;76.60
30999;DHT22;20549;50.042;8.968;2024-02-26T13:05:45;15.60;76.70
30999;DHT22;20549;50.042;8.968;2024-02-26T13:08:18;15.60;76.90
30999;DHT22;20549;50.042;8.968;2024-02-26T13:10:45;15.60;76.70
30999;DHT22;20549;50.042;8.968;2024-02-26T13:13:10;15.70;76.80
30999;DHT22;20549;50.042;8.968;2024-02-26T13:15:37;15.70;76.80
30999;DHT22;20549;50.042;8.968;2024-02-26T13:18:10;15.70;76.90
30999;DHT22;20549;50.042;8.968;2024-02-26T13:20:36;15.80;76.80
30999;DHT22;20549;50.042;8.968;2024-02-26T13:23:12;15.90;76.90
30999;DHT22;20549;50.042;8.968;2024-02-26T13:25:38;15.90;76.90
30999;DHT22;20549;50.042;8.968;2024-02-26T13:28:08;16.00;76.70
30999;DHT22;20549;50.042;8.968;2024-02-26T13:30:34;16.00;76.40
30999;DHT22;20549;50.042;8.968;2024-02-26T13:33:07;16.10;76.10
30999;DHT22;20549;50.042;8.968;2024-02-26T13:35:33;16.10;75.70
30999;DHT22;20549;50.042;8.968;2024-02-26T13:38:00;16.10;75.40
30999;DHT22;20549;50.042;8.968;2024-02-26T13:40:26;16.20;75.60
30999;DHT22;20549;50.042;8.968;2024-02-26T13:42:53;16.20;75.60
30999;DHT22;20549;50.042;8.968;2024-02-26T13:45:20;16.20;75.60
30999;DHT22;20549;50.042;8.968;2024-02-26T13:47:46;16.20;75.40
30999;DHT22;20549;50.042;8.968;2024-02-26T13:50:13;16.20;75.30
30999;DHT22;20549;50.042;8.968;2024-02-26T13:52:39;16.30;75.40
30999;DHT22;20549;50.042;8.968;2024-02-26T13:55:06;16.30;75.60
30999;DHT22;20549;50.042;8.968;2024-02-26T13:57:33;16.30;75.30
30999;DHT22;20549;50.042;8.968;2024-02-26T13:59:59;16.40;75.10
30999;DHT22;20549;50.042;8.968;2024-02-26T14:02:26;16.40;74.70
30999;DHT22;20549;50.042;8.968;2024-02-26T14:04:52;16.50;74.60
30999;DHT22;20549;50.042;8.968;2024-02-26T14:07:19;16.50;74.40
30999;DHT22;20549;50.042;8.968;2024-02-26T14:09:46;16.50;73.90
30999;DHT22;20549;50.042;8.968;2024-02-26T14:12:12;16.50;73.50
30999;DHT22;20549;50.042;8.968;2024-02-26T14:14:39;16.60;73.20
30999;DHT22;20549;50.042;8.968;2024-02-26T14:17:05;16.50;72.60
30999;DHT22;20549;50.042;8.968;2024-02-26T14:19:32;16.40;72.00
30999;DHT22;20549;50.042;8.968;2024-02-26T14:21:59;16.40;71.70
30999;DHT22;20549;50.042;8.968;2024-02-26T14:24:25;16.20;71.50
30999;DHT22;20549;50.042;8.968;2024-02-26T14:26:52;16.10;71.50
30999;DHT22;20549;50.042;8.968;2024-02-26T14:29:18;16.00;71.50
30999;DHT22;20549;50.042;8.968;2024-02-26T14:31:45;15.90;71.70
30999;DHT22;20549;50.042;8.968;2024-02-26T14:34:12;15.70;71.80
30999;DHT22;20549;50.042;8.968;2024-02-26T14:36:38;15.70;72.20
30999;DHT22;20549;50.042;8.968;2024-02-26T14:39:05;15.60;72.50
30999;DHT22;20549;50.042;8.968;2024-02-26T14:41:31;15.60;72.90
30999;DHT22;20549;50.042;8.968;2024-02-26T14:43:58;15.60;73.20
30999;DHT22;20549;50.042;8.968;2024-02-26T14:46:24;15.60;73.40
30999;DHT22;20549;50.042;8.968;2024-02-26T14:48:51;15.60;73.40
30999;DHT22;20549;50.042;8.968;2024-02-26T14:51:18;15.70;73.20
30999;DHT22;20549;50.042;8.968;2024-02-26T14:53:44;15.60;73.20
30999;DHT22;20549;50.042;8.968;2024-02-26T14:56:11;15.60;72.90
30999;DHT22;20549;50.042;8.968;2024-02-26T14:58:37;15.60;72.80
30999;DHT22;20549;50.042;8.968;2024-02-26T15:01:04;15.60;72.90
30999;DHT22;20549;50.042;8.968;2024-02-26T15:03:31;15.60;73.10
30999;DHT22;20549;50.042;8.968;2024-02-26T15:05:57;15.60;73.10
30999;DHT22;20549;50.042;8.968;2024-02-26T15:08:24;15.60;73.20
30999;DHT22;20549;50.042;8.968;2024-02-26T15:10:50;15.60;73.20
30999;DHT22;20549;50.042;8.968;2024-02-26T15:13:17;15.60;73.30
30999;DHT22;20549;50.042;8.968;2024-02-26T15:15:46;15.60;73.50
30999;DHT22;20549;50.042;8.968;2024-02-26T15:18:13;15.60;73.60
30999;DHT22;20549;50.042;8.968;2024-02-26T15:20:40;15.60;73.70
30999;DHT22;20549;50.042;8.968;2024-02-26T15:23:06;15.60;73.50
30999;DHT22;20549;50.042;8.968;2024-02-26T15:25:33;15.60;73.40
30999;DHT22;20549;50.042;8.968;2024-02-26T15:27:59;15.70;73.50
30999;DHT22;20549;50.042;8.968;2024-02-26T15:30:26;15.70;73.50
30999;DHT22;20549;50.042;8.968;2024-02-26T15:32:52;15.70;73.70
30999;DHT22;20549;50.042;8.968;2024-02-26T15:35:19;15.70;73.20
30999;DHT22;20549;50.042;8.968;2024-02-26T15:37:46;15.70;72.90
30999;DHT22;20549;50.042;8.968;2024-02-26T15:40:12;15.70;72.80